sensor_id;sensor_type;location;lat;lon;timestamp;P1;P2;P0
43479;PMS5003;29067;35.492;-97.520;2022-08-21T00:01:44;7;7;
43479;PMS5003;29067;35.492;-97.520;2022-08-21T00:04:13;7;6;
43479;PMS5003;29067;35.492;-97.520;2022-08-21T00:06:41;4;4;
43479;PMS5003;29067;35.492;-97.520;2022-08-21T00:09:09;7;7;
43479;PMS5003;29067;35.492;-97.520;2022-08-21T00:11:38;7;7;
43479;PMS5003;29067;35.492;-97.520;2022-08-21T00:14:07;6;6;
43479;PMS5003;29067;35.492;-97.520;2022-08-21T00:16:36;7;5;
43479;PMS5003;29067;35.492;-97.520;2022-08-21T00:19:04;8;7;
43479;PMS5003;29067;35.492;-97.520;2022-08-21T00:21:34;6;6;
43479;PMS5003;29067;35.492;-97.520;2022-08-21T00:24:03;6;6;
43479;PMS5003;29067;35.492;-97.520;2022-08-21T00:26:31;7;7;
43479;PMS5003;29067;35.492;-97.520;2022-08-21T00:28:59;6;6;
43479;PMS5003;29067;35.492;-97.520;2022-08-21T00:31:26;6;6;
43479;PMS5003;29067;35.492;-97.520;2022-08-21T00:33:55;5;5;
43479;PMS5003;29067;35.492;-97.520;2022-08-21T00:36:23;6;6;
43479;PMS5003;29067;35.492;-97.520;2022-08-21T00:38:51;6;5;
43479;PMS5003;29067;35.492;-97.520;2022-08-21T00:41:20;6;6;
43479;PMS5003;29067;35.492;-97.520;2022-08-21T00:43:48;8;7;
43479;PMS5003;29067;35.492;-97.520;2022-08-21T00:46:16;4;4;
43479;PMS5003;29067;35.492;-97.520;2022-08-21T00:48:44;5;5;
43479;PMS5003;29067;35.492;-97.520;2022-08-21T00:51:13;8;8;
43479;PMS5003;29067;35.492;-97.520;2022-08-21T00:53:45;9;8;
43479;PMS5003;29067;35.492;-97.520;2022-08-21T00:56:14;6;6;
43479;PMS5003;29067;35.492;-97.520;2022-08-21T00:58:42;5;5;
43479;PMS5003;29067;35.492;-97.520;2022-08-21T01:01:11;5;4;
43479;PMS5003;29067;35.492;-97.520;2022-08-21T01:03:40;5;5;
43479;PMS5003;29067;35.492;-97.520;2022-08-21T01:06:09;3;3;
43479;PMS5003;29067;35.492;-97.520;2022-08-21T01:08:37;3;2;
43479;PMS5003;29067;35.492;-97.520;2022-08-21T01:11:05;9;9;
43479;PMS5003;29067;35.492;-97.520;2022-08-21T01:13:35;6;6;
43479;PMS5003;29067;35.492;-97.520;2022-08-21T01:16:04;5;4;
43479;PMS5003;29067;35.492;-97.520;2022-08-21T01:18:36;2;2;
43479;PMS5003;29067;35.492;-97.520;2022-08-21T01:21:06;5;4;
43479;PMS5003;29067;35.492;-97.520;2022-08-21T01:23:37;4;3;
43479;PMS5003;29067;35.492;-97.520;2022-08-21T01:26:09;5;4;
43479;PMS5003;29067;35.492;-97.520;2022-08-21T01:28:38;6;4;
43479;PMS5003;29067;35.492;-97.520;2022-08-21T01:31:11;5;4;
43479;PMS5003;29067;35.492;-97.520;2022-08-21T01:33:41;4;4;
43479;PMS5003;29067;35.492;-97.520;2022-08-21T01:36:09;3;3;
43479;PMS5003;29067;35.492;-97.520;2022-08-21T01:38:37;3;3;
43479;PMS5003;29067;35.492;-97.520;2022-08-21T01:41:05;5;4;
43479;PMS5003;29067;35.492;-97.520;2022-08-21T01:43:33;6;6;
43479;PMS5003;29067;35.492;-97.520;2022-08-21T01:46:02;5;5;
43479;PMS5003;29067;35.492;-97.520;2022-08-21T01:48:30;6;5;
43479;PMS5003;29067;35.492;-97.520;2022-08-21T01:50:58;9;7;
43479;PMS5003;29067;35.492;-97.520;2022-08-21T01:53:27;11;11;
43479;PMS5003;29067;35.492;-97.520;2022-08-21T01:55:55;13;12;
43479;PMS5003;29067;35.492;-97.520;2022-08-21T01:58:23;13;11;
43479;PMS5003;29067;35.492;-97.520;2022-08-21T02:00:50;6;5;
43479;PMS5003;29067;35.492;-97.520;2022-08-21T02:03:19;6;6;
43479;PMS5003;29067;35.492;-97.520;2022-08-21T02:05:46;3;3;
43479;PMS5003;29067;35.492;-97.520;2022-08-21T02:08:14;5;4;
43479;PMS5003;29067;35.492;-97.520;2022-08-21T02:10:41;4;4;
43479;PMS5003;29067;35.492;-97.520;2022-08-21T02:13:09;2;2;
43479;PMS5003;29067;35.492;-97.520;2022-08-21T02:15:36;4;4;
43479;PMS5003;29067;35.492;-97.520;2022-08-21T02:18:04;3;2;
43479;PMS5003;29067;35.492;-97.520;2022-08-21T02:20:34;6;5;
43479;PMS5003;29067;35.492;-97.520;2022-08-21T02:23:05;5;5;
43479;PMS5003;29067;35.492;-97.520;2022-08-21T02:25:34;3;3;
43479;PMS5003;29067;35.492;-97.520;2022-08-21T02:28:04;4;4;
43479;PMS5003;29067;35.492;-97.520;2022-08-21T02:30:34;8;8;
43479;PMS5003;29067;35.492;-97.520;2022-08-21T02:33:05;5;4;
43479;PMS5003;29067;35.492;-97.520;2022-08-21T02:35:34;3;2;
43479;PMS5003;29067;35.492;-97.520;2022-08-21T02:38:04;5;4;
43479;PMS5003;29067;35.492;-97.520;2022-08-21T02:40:34;4;3;
43479;PMS5003;29067;35.492;-97.520;2022-08-21T02:43:05;3;3;
43479;PMS5003;29067;35.492;-97.520;2022-08-21T02:45:34;5;4;
43479;PMS5003;29067;35.492;-97.520;2022-08-21T02:48:04;3;3;
43479;PMS5003;29067;35.492;-97.520;2022-08-21T02:50:36;2;2;
43479;PMS5003;29067;35.492;-97.520;2022-08-21T02:53:05;3;3;
43479;PMS5003;29067;35.492;-97.520;2022-08-21T02:55:35;3;3;
43479;PMS5003;29067;35.492;-97.520;2022-08-21T02:58:04;5;4;
43479;PMS5003;29067;35.492;-97.520;2022-08-21T03:00:34;3;3;
43479;PMS5003;29067;35.492;-97.520;2022-08-21T03:03:03;3;3;
43479;PMS5003;29067;35.492;-97.520;2022-08-21T03:05:32;2;2;
43479;PMS5003;29067;35.492;-97.520;2022-08-21T03:08:01;3;3;
43479;PMS5003;29067;35.492;-97.520;2022-08-21T03:10:31;5;2;
43479;PMS5003;29067;35.492;-97.520;2022-08-21T03:12:59;5;5;
43479;PMS5003;29067;35.492;-97.520;2022-08-21T03:15:26;2;2;
43479;PMS5003;29067;35.492;-97.520;2022-08-21T03:17:54;4;4;
43479;PMS5003;29067;35.492;-97.520;2022-08-21T03:20:22;4;4;
43479;PMS5003;29067;35.492;-97.520;2022-08-21T03:22:53;2;2;
43479;PMS5003;29067;35.492;-97.520;2022-08-21T03:25:21;5;4;
43479;PMS5003;29067;35.492;-97.520;2022-08-21T03:27:50;5;4;
43479;PMS5003;29067;35.492;-97.520;2022-08-21T03:30:19;12;11;
43479;PMS5003;29067;35.492;-97.520;2022-08-21T03:32:48;17;17;
43479;PMS5003;29067;35.492;-97.520;2022-08-21T03:35:16;18;17;
43479;PMS5003;29067;35.492;-97.520;2022-08-21T03:37:45;15;11;
43479;PMS5003;29067;35.492;-97.520;2022-08-21T03:40:15;13;13;
43479;PMS5003;29067;35.492;-97.520;2022-08-21T03:42:45;9;9;
43479;PMS5003;29067;35.492;-97.520;2022-08-21T03:45:14;9;9;
43479;PMS5003;29067;35.492;-97.520;2022-08-21T03:47:50;10;10;
43479;PMS5003;29067;35.492;-97.520;2022-08-21T03:50:19;13;13;
43479;PMS5003;29067;35.492;-97.520;2022-08-21T03:52:47;8;8;
43479;PMS5003;29067;35.492;-97.520;2022-08-21T03:55:16;6;6;
43479;PMS5003;29067;35.492;-97.520;2022-08-21T03:57:44;4;4;
43479;PMS5003;29067;35.492;-97.520;2022-08-21T04:00:13;4;4;
43479;PMS5003;29067;35.492;-97.520;2022-08-21T04:02:43;4;3;
43479;PMS5003;29067;35.492;-97.520;2022-08-21T04:05:11;4;4;
43479;PMS5003;29067;35.492;-97.520;2022-08-21T04:07:40;10;8;
43479;PMS5003;29067;35.492;-97.520;2022-08-21T04:10:08;5;4;
43479;PMS5003;29067;35.492;-97.520;2022-08-21T04:12:36;3;3;
43479;PMS5003;29067;35.492;-97.520;2022-08-21T04:15:04;4;4;
43479;PMS5003;29067;35.492;-97.520;2022-08-21T04:17:32;5;5;
43479;PMS5003;29067;35.492;-97.520;2022-08-21T04:19:59;8;8;
43479;PMS5003;29067;35.492;-97.520;2022-08-21T04:22:27;6;6;
43479;PMS5003;29067;35.492;-97.520;2022-08-21T04:24:55;6;6;
43479;PMS5003;29067;35.492;-97.520;2022-08-21T04:27:22;3;3;
43479;PMS5003;29067;35.492;-97.520;2022-08-21T04:29:50;2;2;
43479;PMS5003;29067;35.492;-97.520;2022-08-21T04:32:21;2;2;
43479;PMS5003;29067;35.492;-97.520;2022-08-21T04:34:49;2;2;
43479;PMS5003;29067;35.492;-97.520;2022-08-21T04:37:17;5;5;
43479;PMS5003;29067;35.492;-97.520;2022-08-21T04:39:45;5;5;
43479;PMS5003;29067;35.492;-97.520;2022-08-21T04:42:13;8;7;
43479;PMS5003;29067;35.492;-97.520;2022-08-21T04:44:41;7;7;
43479;PMS5003;29067;35.492;-97.520;2022-08-21T04:47:08;36;36;
43479;PMS5003;29067;35.492;-97.520;2022-08-21T04:49:36;32;32;
43479;PMS5003;29067;35.492;-97.520;2022-08-21T04:52:04;32;32;
43479;PMS5003;29067;35.492;-97.520;2022-08-21T04:54:32;11;10;
43479;PMS5003;29067;35.492;-97.520;2022-08-21T04:57:02;7;6;
43479;PMS5003;29067;35.492;-97.520;2022-08-21T04:59:36;14;13;
43479;PMS5003;29067;35.492;-97.520;2022-08-21T05:02:06;10;7;
43479;PMS5003;29067;35.492;-97.520;2022-08-21T05:04:36;28;28;
43479;PMS5003;29067;35.492;-97.520;2022-08-21T05:07:10;15;15;
43479;PMS5003;29067;35.492;-97.520;2022-08-21T05:09:42;8;5;
43479;PMS5003;29067;35.492;-97.520;2022-08-21T05:12:10;20;19;
43479;PMS5003;29067;35.492;-97.520;2022-08-21T05:14:39;5;5;
43479;PMS5003;29067;35.492;-97.520;2022-08-21T05:17:06;6;6;
43479;PMS5003;29067;35.492;-97.520;2022-08-21T05:19:34;10;10;
43479;PMS5003;29067;35.492;-97.520;2022-08-21T05:22:02;2;2;
43479;PMS5003;29067;35.492;-97.520;2022-08-21T05:24:30;7;7;
43479;PMS5003;29067;35.492;-97.520;2022-08-21T05:26:59;6;6;
43479;PMS5003;29067;35.492;-97.520;2022-08-21T05:29:26;8;8;
43479;PMS5003;29067;35.492;-97.520;2022-08-21T05:31:55;6;6;
43479;PMS5003;29067;35.492;-97.520;2022-08-21T05:34:23;4;4;
43479;PMS5003;29067;35.492;-97.520;2022-08-21T05:36:51;4;4;
43479;PMS5003;29067;35.492;-97.520;2022-08-21T05:39:18;3;3;
43479;PMS5003;29067;35.492;-97.520;2022-08-21T05:41:47;5;5;
43479;PMS5003;29067;35.492;-97.520;2022-08-21T05:44:14;15;15;
43479;PMS5003;29067;35.492;-97.520;2022-08-21T05:46:43;19;18;
43479;PMS5003;29067;35.492;-97.520;2022-08-21T05:49:10;16;16;
43479;PMS5003;29067;35.492;-97.520;2022-08-21T05:51:39;10;10;
43479;PMS5003;29067;35.492;-97.520;2022-08-21T05:54:08;3;3;
43479;PMS5003;29067;35.492;-97.520;2022-08-21T05:56:36;4;3;
43479;PMS5003;29067;35.492;-97.520;2022-08-21T05:59:03;3;3;
43479;PMS5003;29067;35.492;-97.520;2022-08-21T06:01:31;3;3;
43479;PMS5003;29067;35.492;-97.520;2022-08-21T06:03:58;4;4;
43479;PMS5003;29067;35.492;-97.520;2022-08-21T06:06:26;3;3;
43479;PMS5003;29067;35.492;-97.520;2022-08-21T06:08:53;3;2;
43479;PMS5003;29067;35.492;-97.520;2022-08-21T06:11:21;4;4;
43479;PMS5003;29067;35.492;-97.520;2022-08-21T06:13:48;4;4;
43479;PMS5003;29067;35.492;-97.520;2022-08-21T06:16:16;4;4;
43479;PMS5003;29067;35.492;-97.520;2022-08-21T06:18:44;3;2;
43479;PMS5003;29067;35.492;-97.520;2022-08-21T06:21:12;3;3;
43479;PMS5003;29067;35.492;-97.520;2022-08-21T06:23:41;4;3;
43479;PMS5003;29067;35.492;-97.520;2022-08-21T06:26:10;3;3;
43479;PMS5003;29067;35.492;-97.520;2022-08-21T06:28:39;2;2;
43479;PMS5003;29067;35.492;-97.520;2022-08-21T06:31:10;3;3;
43479;PMS5003;29067;35.492;-97.520;2022-08-21T06:33:41;3;3;
43479;PMS5003;29067;35.492;-97.520;2022-08-21T06:36:09;2;2;
43479;PMS5003;29067;35.492;-97.520;2022-08-21T06:38:37;3;2;
43479;PMS5003;29067;35.492;-97.520;2022-08-21T06:41:06;3;2;
43479;PMS5003;29067;35.492;-97.520;2022-08-21T06:43:34;2;2;
43479;PMS5003;29067;35.492;-97.520;2022-08-21T06:46:03;2;2;
43479;PMS5003;29067;35.492;-97.520;2022-08-21T06:48:31;2;1;
43479;PMS5003;29067;35.492;-97.520;2022-08-21T06:50:58;4;3;
43479;PMS5003;29067;35.492;-97.520;2022-08-21T06:53:27;3;3;
43479;PMS5003;29067;35.492;-97.520;2022-08-21T06:55:55;6;5;
43479;PMS5003;29067;35.492;-97.520;2022-08-21T06:58:23;3;3;
43479;PMS5003;29067;35.492;-97.520;2022-08-21T07:00:51;3;3;
43479;PMS5003;29067;35.492;-97.520;2022-08-21T07:03:19;2;2;
43479;PMS5003;29067;35.492;-97.520;2022-08-21T07:05:49;5;2;
43479;PMS5003;29067;35.492;-97.520;2022-08-21T07:08:17;2;2;
43479;PMS5003;29067;35.492;-97.520;2022-08-21T07:10:46;8;8;
43479;PMS5003;29067;35.492;-97.520;2022-08-21T07:13:15;17;16;
43479;PMS5003;29067;35.492;-97.520;2022-08-21T07:15:44;9;8;
43479;PMS5003;29067;35.492;-97.520;2022-08-21T07:18:12;9;9;
43479;PMS5003;29067;35.492;-97.520;2022-08-21T07:20:40;8;8;
43479;PMS5003;29067;35.492;-97.520;2022-08-21T07:23:09;9;7;
43479;PMS5003;29067;35.492;-97.520;2022-08-21T07:25:39;19;19;
43479;PMS5003;29067;35.492;-97.520;2022-08-21T07:28:06;7;7;
43479;PMS5003;29067;35.492;-97.520;2022-08-21T07:30:34;9;9;
43479;PMS5003;29067;35.492;-97.520;2022-08-21T07:33:01;22;21;
43479;PMS5003;29067;35.492;-97.520;2022-08-21T07:35:30;9;8;
43479;PMS5003;29067;35.492;-97.520;2022-08-21T07:37:58;6;5;
43479;PMS5003;29067;35.492;-97.520;2022-08-21T07:40:26;14;14;
43479;PMS5003;29067;35.492;-97.520;2022-08-21T07:42:53;23;23;
43479;PMS5003;29067;35.492;-97.520;2022-08-21T07:45:22;17;17;
43479;PMS5003;29067;35.492;-97.520;2022-08-21T07:47:51;6;6;
43479;PMS5003;29067;35.492;-97.520;2022-08-21T07:50:19;5;4;
43479;PMS5003;29067;35.492;-97.520;2022-08-21T07:52:47;6;6;
43479;PMS5003;29067;35.492;-97.520;2022-08-21T07:55:15;8;8;
43479;PMS5003;29067;35.492;-97.520;2022-08-21T07:57:45;9;8;
43479;PMS5003;29067;35.492;-97.520;2022-08-21T08:00:14;6;6;
43479;PMS5003;29067;35.492;-97.520;2022-08-21T08:02:45;7;7;
43479;PMS5003;29067;35.492;-97.520;2022-08-21T08:05:14;8;7;
43479;PMS5003;29067;35.492;-97.520;2022-08-21T08:07:43;8;7;
43479;PMS5003;29067;35.492;-97.520;2022-08-21T08:10:11;7;7;
43479;PMS5003;29067;35.492;-97.520;2022-08-21T08:12:40;9;9;
43479;PMS5003;29067;35.492;-97.520;2022-08-21T08:15:10;6;6;
43479;PMS5003;29067;35.492;-97.520;2022-08-21T08:17:41;8;7;
43479;PMS5003;29067;35.492;-97.520;2022-08-21T08:20:14;13;13;
43479;PMS5003;29067;35.492;-97.520;2022-08-21T08:22:44;8;7;
43479;PMS5003;29067;35.492;-97.520;2022-08-21T08:25:13;4;4;
43479;PMS5003;29067;35.492;-97.520;2022-08-21T08:27:41;6;6;
43479;PMS5003;29067;35.492;-97.520;2022-08-21T08:30:11;10;10;
43479;PMS5003;29067;35.492;-97.520;2022-08-21T08:32:40;18;18;
43479;PMS5003;29067;35.492;-97.520;2022-08-21T08:35:10;18;18;
43479;PMS5003;29067;35.492;-97.520;2022-08-21T08:37:39;6;6;
43479;PMS5003;29067;35.492;-97.520;2022-08-21T08:40:09;5;5;
43479;PMS5003;29067;35.492;-97.520;2022-08-21T08:42:39;5;5;
43479;PMS5003;29067;35.492;-97.520;2022-08-21T08:45:08;6;5;
43479;PMS5003;29067;35.492;-97.520;2022-08-21T08:47:39;4;4;
43479;PMS5003;29067;35.492;-97.520;2022-08-21T08:50:13;10;10;
43479;PMS5003;29067;35.492;-97.520;2022-08-21T08:52:48;10;10;
43479;PMS5003;29067;35.492;-97.520;2022-08-21T08:55:21;5;5;
43479;PMS5003;29067;35.492;-97.520;2022-08-21T08:57:53;11;11;
43479;PMS5003;29067;35.492;-97.520;2022-08-21T09:00:22;15;15;
43479;PMS5003;29067;35.492;-97.520;2022-08-21T09:02:52;10;10;
43479;PMS5003;29067;35.492;-97.520;2022-08-21T09:05:26;16;16;
43479;PMS5003;29067;35.492;-97.520;2022-08-21T09:08:01;27;26;
43479;PMS5003;29067;35.492;-97.520;2022-08-21T09:10:51;26;26;
43479;PMS5003;29067;35.492;-97.520;2022-08-21T09:13:31;24;24;
43479;PMS5003;29067;35.492;-97.520;2022-08-21T09:16:17;16;16;
43479;PMS5003;29067;35.492;-97.520;2022-08-21T09:18:56;4;4;
43479;PMS5003;29067;35.492;-97.520;2022-08-21T09:21:33;7;7;
43479;PMS5003;29067;35.492;-97.520;2022-08-21T09:24:18;26;26;
43479;PMS5003;29067;35.492;-97.520;2022-08-21T09:26:59;14;11;
43479;PMS5003;29067;35.492;-97.520;2022-08-21T09:29:34;34;32;
43479;PMS5003;29067;35.492;-97.520;2022-08-21T09:32:09;26;26;
43479;PMS5003;29067;35.492;-97.520;2022-08-21T09:34:41;24;23;
43479;PMS5003;29067;35.492;-97.520;2022-08-21T09:37:15;24;24;
43479;PMS5003;29067;35.492;-97.520;2022-08-21T09:39:44;20;19;
43479;PMS5003;29067;35.492;-97.520;2022-08-21T09:42:20;25;24;
43479;PMS5003;29067;35.492;-97.520;2022-08-21T09:45:00;17;17;
43479;PMS5003;29067;35.492;-97.520;2022-08-21T09:47:35;33;33;
43479;PMS5003;29067;35.492;-97.520;2022-08-21T09:50:12;40;40;
43479;PMS5003;29067;35.492;-97.520;2022-08-21T09:52:44;21;21;
43479;PMS5003;29067;35.492;-97.520;2022-08-21T09:55:16;24;24;
43479;PMS5003;29067;35.492;-97.520;2022-08-21T09:57:49;24;24;
43479;PMS5003;29067;35.492;-97.520;2022-08-21T10:00:19;18;17;
43479;PMS5003;29067;35.492;-97.520;2022-08-21T10:02:52;27;26;
43479;PMS5003;29067;35.492;-97.520;2022-08-21T10:05:21;15;14;
43479;PMS5003;29067;35.492;-97.520;2022-08-21T10:07:52;30;30;
43479;PMS5003;29067;35.492;-97.520;2022-08-21T10:10:22;26;26;
43479;PMS5003;29067;35.492;-97.520;2022-08-21T10:12:54;13;12;
43479;PMS5003;29067;35.492;-97.520;2022-08-21T10:15:27;23;21;
43479;PMS5003;29067;35.492;-97.520;2022-08-21T10:18:07;15;14;
43479;PMS5003;29067;35.492;-97.520;2022-08-21T10:20:43;5;5;
43479;PMS5003;29067;35.492;-97.520;2022-08-21T10:23:25;68;64;
43479;PMS5003;29067;35.492;-97.520;2022-08-21T10:26:05;33;32;
43479;PMS5003;29067;35.492;-97.520;2022-08-21T10:28:37;9;8;
43479;PMS5003;29067;35.492;-97.520;2022-08-21T10:31:23;4;4;
43479;PMS5003;29067;35.492;-97.520;2022-08-21T10:34:04;3;3;
43479;PMS5003;29067;35.492;-97.520;2022-08-21T10:36:48;4;4;
43479;PMS5003;29067;35.492;-97.520;2022-08-21T10:39:25;4;4;
43479;PMS5003;29067;35.492;-97.520;2022-08-21T10:42:05;4;4;
43479;PMS5003;29067;35.492;-97.520;2022-08-21T10:44:52;4;4;
43479;PMS5003;29067;35.492;-97.520;2022-08-21T10:47:34;3;3;
43479;PMS5003;29067;35.492;-97.520;2022-08-21T10:50:09;3;3;
43479;PMS5003;29067;35.492;-97.520;2022-08-21T10:52:49;4;4;
43479;PMS5003;29067;35.492;-97.520;2022-08-21T10:55:30;3;3;
43479;PMS5003;29067;35.492;-97.520;2022-08-21T10:58:05;4;4;
43479;PMS5003;29067;35.492;-97.520;2022-08-21T11:03:01;4;4;
43479;PMS5003;29067;35.492;-97.520;2022-08-21T11:05:34;4;4;
43479;PMS5003;29067;35.492;-97.520;2022-08-21T11:08:09;4;4;
43479;PMS5003;29067;35.492;-97.520;2022-08-21T11:10:40;4;4;
43479;PMS5003;29067;35.492;-97.520;2022-08-21T11:13:14;5;4;
43479;PMS5003;29067;35.492;-97.520;2022-08-21T11:15:48;5;4;
43479;PMS5003;29067;35.492;-97.520;2022-08-21T11:18:24;5;5;
43479;PMS5003;29067;35.492;-97.520;2022-08-21T11:21:01;5;5;
43479;PMS5003;29067;35.492;-97.520;2022-08-21T11:23:38;4;4;
43479;PMS5003;29067;35.492;-97.520;2022-08-21T11:26:12;6;5;
43479;PMS5003;29067;35.492;-97.520;2022-08-21T11:28:46;4;4;
43479;PMS5003;29067;35.492;-97.520;2022-08-21T11:31:25;4;4;
43479;PMS5003;29067;35.492;-97.520;2022-08-21T11:34:10;4;4;
43479;PMS5003;29067;35.492;-97.520;2022-08-21T11:36:54;5;4;
43479;PMS5003;29067;35.492;-97.520;2022-08-21T11:39:30;4;4;
43479;PMS5003;29067;35.492;-97.520;2022-08-21T11:42:07;4;4;
43479;PMS5003;29067;35.492;-97.520;2022-08-21T11:44:49;4;4;
43479;PMS5003;29067;35.492;-97.520;2022-08-21T11:47:25;5;4;
43479;PMS5003;29067;35.492;-97.520;2022-08-21T11:50:03;6;5;
43479;PMS5003;29067;35.492;-97.520;2022-08-21T11:52:39;4;4;
43479;PMS5003;29067;35.492;-97.520;2022-08-21T11:55:13;4;4;
43479;PMS5003;29067;35.492;-97.520;2022-08-21T11:57:49;6;6;
43479;PMS5003;29067;35.492;-97.520;2022-08-21T12:00:22;5;5;
43479;PMS5003;29067;35.492;-97.520;2022-08-21T12:02:54;5;5;
43479;PMS5003;29067;35.492;-97.520;2022-08-21T12:05:27;6;5;
43479;PMS5003;29067;35.492;-97.520;2022-08-21T12:08:00;5;4;
43479;PMS5003;29067;35.492;-97.520;2022-08-21T12:10:32;5;5;
43479;PMS5003;29067;35.492;-97.520;2022-08-21T12:13:06;5;5;
43479;PMS5003;29067;35.492;-97.520;2022-08-21T12:15:35;6;5;
43479;PMS5003;29067;35.492;-97.520;2022-08-21T12:18:06;4;3;
43479;PMS5003;29067;35.492;-97.520;2022-08-21T12:20:57;4;4;
43479;PMS5003;29067;35.492;-97.520;2022-08-21T12:23:28;5;4;
43479;PMS5003;29067;35.492;-97.520;2022-08-21T12:26:00;4;4;
43479;PMS5003;29067;35.492;-97.520;2022-08-21T12:28:37;5;4;
43479;PMS5003;29067;35.492;-97.520;2022-08-21T12:31:16;4;4;
43479;PMS5003;29067;35.492;-97.520;2022-08-21T12:33:50;5;5;
43479;PMS5003;29067;35.492;-97.520;2022-08-21T12:36:23;6;6;
43479;PMS5003;29067;35.492;-97.520;2022-08-21T12:38:57;5;5;
43479;PMS5003;29067;35.492;-97.520;2022-08-21T12:41:28;4;4;
43479;PMS5003;29067;35.492;-97.520;2022-08-21T12:44:00;5;5;
43479;PMS5003;29067;35.492;-97.520;2022-08-21T12:46:34;5;5;
43479;PMS5003;29067;35.492;-97.520;2022-08-21T12:49:08;6;5;
43479;PMS5003;29067;35.492;-97.520;2022-08-21T12:51:46;6;6;
43479;PMS5003;29067;35.492;-97.520;2022-08-21T12:54:24;6;5;
43479;PMS5003;29067;35.492;-97.520;2022-08-21T12:56:56;4;4;
43479;PMS5003;29067;35.492;-97.520;2022-08-21T12:59:27;4;4;
43479;PMS5003;29067;35.492;-97.520;2022-08-21T13:01:56;5;5;
43479;PMS5003;29067;35.492;-97.520;2022-08-21T13:04:33;4;4;
43479;PMS5003;29067;35.492;-97.520;2022-08-21T13:07:05;6;6;
43479;PMS5003;29067;35.492;-97.520;2022-08-21T13:09:35;6;6;
43479;PMS5003;29067;35.492;-97.520;2022-08-21T13:12:08;4;4;
43479;PMS5003;29067;35.492;-97.520;2022-08-21T13:14:37;3;3;
43479;PMS5003;29067;35.492;-97.520;2022-08-21T13:17:07;4;4;
43479;PMS5003;29067;35.492;-97.520;2022-08-21T13:19:37;5;5;
43479;PMS5003;29067;35.492;-97.520;2022-08-21T13:22:06;5;5;
43479;PMS5003;29067;35.492;-97.520;2022-08-21T13:24:40;5;4;
43479;PMS5003;29067;35.492;-97.520;2022-08-21T13:27:17;4;4;
43479;PMS5003;29067;35.492;-97.520;2022-08-21T13:29:47;5;5;
43479;PMS5003;29067;35.492;-97.520;2022-08-21T13:32:26;5;5;
43479;PMS5003;29067;35.492;-97.520;2022-08-21T13:34:56;6;6;
43479;PMS5003;29067;35.492;-97.520;2022-08-21T13:37:25;7;7;
43479;PMS5003;29067;35.492;-97.520;2022-08-21T13:39:54;8;6;
43479;PMS5003;29067;35.492;-97.520;2022-08-21T13:42:23;5;5;
43479;PMS5003;29067;35.492;-97.520;2022-08-21T13:44:51;6;6;
43479;PMS5003;29067;35.492;-97.520;2022-08-21T13:47:19;7;7;
43479;PMS5003;29067;35.492;-97.520;2022-08-21T13:49:49;7;6;
43479;PMS5003;29067;35.492;-97.520;2022-08-21T13:52:19;5;5;
43479;PMS5003;29067;35.492;-97.520;2022-08-21T13:54:52;6;6;
43479;PMS5003;29067;35.492;-97.520;2022-08-21T13:57:25;6;6;
43479;PMS5003;29067;35.492;-97.520;2022-08-21T14:00:09;6;6;
43479;PMS5003;29067;35.492;-97.520;2022-08-21T14:02:40;6;6;
43479;PMS5003;29067;35.492;-97.520;2022-08-21T14:05:14;6;5;
43479;PMS5003;29067;35.492;-97.520;2022-08-21T14:07:47;7;7;
43479;PMS5003;29067;35.492;-97.520;2022-08-21T14:10:18;6;6;
43479;PMS5003;29067;35.492;-97.520;2022-08-21T14:12:49;5;5;
43479;PMS5003;29067;35.492;-97.520;2022-08-21T14:15:23;6;6;
43479;PMS5003;29067;35.492;-97.520;2022-08-21T14:17:53;7;7;
43479;PMS5003;29067;35.492;-97.520;2022-08-21T14:20:34;7;6;
43479;PMS5003;29067;35.492;-97.520;2022-08-21T14:23:03;6;6;
43479;PMS5003;29067;35.492;-97.520;2022-08-21T14:25:37;7;7;
43479;PMS5003;29067;35.492;-97.520;2022-08-21T14:28:11;5;5;
43479;PMS5003;29067;35.492;-97.520;2022-08-21T14:30:46;6;6;
43479;PMS5003;29067;35.492;-97.520;2022-08-21T14:33:17;6;6;
43479;PMS5003;29067;35.492;-97.520;2022-08-21T14:35:49;5;5;
43479;PMS5003;29067;35.492;-97.520;2022-08-21T14:38:19;8;7;
43479;PMS5003;29067;35.492;-97.520;2022-08-21T14:40:49;9;9;
43479;PMS5003;29067;35.492;-97.520;2022-08-21T14:43:18;8;8;
43479;PMS5003;29067;35.492;-97.520;2022-08-21T14:45:47;4;4;
43479;PMS5003;29067;35.492;-97.520;2022-08-21T14:48:15;6;6;
43479;PMS5003;29067;35.492;-97.520;2022-08-21T14:50:42;6;6;
43479;PMS5003;29067;35.492;-97.520;2022-08-21T14:53:10;6;6;
43479;PMS5003;29067;35.492;-97.520;2022-08-21T14:55:38;7;7;
43479;PMS5003;29067;35.492;-97.520;2022-08-21T14:58:07;6;6;
43479;PMS5003;29067;35.492;-97.520;2022-08-21T15:00:36;7;7;
43479;PMS5003;29067;35.492;-97.520;2022-08-21T15:03:04;7;6;
43479;PMS5003;29067;35.492;-97.520;2022-08-21T15:05:31;6;6;
43479;PMS5003;29067;35.492;-97.520;2022-08-21T15:10:12;6;6;
43479;PMS5003;29067;35.492;-97.520;2022-08-21T15:12:40;8;7;
43479;PMS5003;29067;35.492;-97.520;2022-08-21T15:15:08;7;7;
43479;PMS5003;29067;35.492;-97.520;2022-08-21T15:17:37;7;7;
43479;PMS5003;29067;35.492;-97.520;2022-08-21T15:20:05;8;7;
43479;PMS5003;29067;35.492;-97.520;2022-08-21T15:22:34;7;7;
43479;PMS5003;29067;35.492;-97.520;2022-08-21T15:25:01;7;6;
43479;PMS5003;29067;35.492;-97.520;2022-08-21T15:27:30;7;7;
43479;PMS5003;29067;35.492;-97.520;2022-08-21T15:29:57;7;7;
43479;PMS5003;29067;35.492;-97.520;2022-08-21T15:32:25;8;8;
43479;PMS5003;29067;35.492;-97.520;2022-08-21T15:34:54;8;8;
43479;PMS5003;29067;35.492;-97.520;2022-08-21T15:37:24;8;8;
43479;PMS5003;29067;35.492;-97.520;2022-08-21T15:39:52;7;7;
43479;PMS5003;29067;35.492;-97.520;2022-08-21T15:42:20;9;9;
43479;PMS5003;29067;35.492;-97.520;2022-08-21T15:44:49;8;8;
43479;PMS5003;29067;35.492;-97.520;2022-08-21T15:47:18;5;5;
43479;PMS5003;29067;35.492;-97.520;2022-08-21T15:49:48;11;8;
43479;PMS5003;29067;35.492;-97.520;2022-08-21T15:52:16;11;10;
43479;PMS5003;29067;35.492;-97.520;2022-08-21T15:54:46;8;8;
43479;PMS5003;29067;35.492;-97.520;2022-08-21T15:57:14;9;8;
43479;PMS5003;29067;35.492;-97.520;2022-08-21T15:59:47;10;9;
43479;PMS5003;29067;35.492;-97.520;2022-08-21T16:02:19;7;6;
43479;PMS5003;29067;35.492;-97.520;2022-08-21T16:04:50;11;9;
43479;PMS5003;29067;35.492;-97.520;2022-08-21T16:07:18;10;9;
43479;PMS5003;29067;35.492;-97.520;2022-08-21T16:09:46;8;8;
43479;PMS5003;29067;35.492;-97.520;2022-08-21T16:12:17;10;9;
43479;PMS5003;29067;35.492;-97.520;2022-08-21T16:14:49;8;6;
43479;PMS5003;29067;35.492;-97.520;2022-08-21T16:17:19;8;8;
43479;PMS5003;29067;35.492;-97.520;2022-08-21T16:19:51;9;9;
43479;PMS5003;29067;35.492;-97.520;2022-08-21T16:22:19;8;8;
43479;PMS5003;29067;35.492;-97.520;2022-08-21T16:24:46;7;7;
43479;PMS5003;29067;35.492;-97.520;2022-08-21T16:27:15;9;9;
43479;PMS5003;29067;35.492;-97.520;2022-08-21T16:29:43;8;8;
43479;PMS5003;29067;35.492;-97.520;2022-08-21T16:32:12;10;10;
43479;PMS5003;29067;35.492;-97.520;2022-08-21T16:34:43;8;7;
43479;PMS5003;29067;35.492;-97.520;2022-08-21T16:37:14;8;7;
43479;PMS5003;29067;35.492;-97.520;2022-08-21T16:39:42;10;8;